ウラジオストク の空港の天気 - METARとTAF

ウラジオストク空港 ( UHWW / VVO ) - ロシア ウラジオストク
飛行場実況気象(Metar)
観測時間09/23 20:30 VLAT (09/23 10:30 UTC)
風向・風速静穏 0m/s
視程10km以上
天気現象
なし
気温15℃
湿度88%
気圧1013hPa
METARUHWW 231030Z 00000MPS 9999 NSC 15/13 Q1013 R25L/0///70 NOSIG RMK QFE759
過去の天気等 Google飛行場航空写真 Wunderground天気予報

過去48時間のMETAR

飛行場予報(TAF)
発表時間: 9/23 17:55 VLAT (9/23 07:55 UTC)
予報対象時間: 23日19時 VLAT ~ 24日19時 VLAT
風向・風速南西 3m/s
視程10km以上
全天の4割程度の雲 雲底高度 1,220m
23日20時 VLAT ~ 23日22時 VLAT に徐々に
視程3,100m
天気現象もや
全天の8割程度の雲 雲底高度 340m
23日22時 VLAT ~ 24日10時 VLAT に一時的に
視程300m
天気現象
全天を覆う雲 鉛直視程 60m
24日11時 VLAT から
風向・風速南 3m/s
視程10km以上
全天の8割程度の積乱雲 雲底高度 910m
24日12時 VLAT ~ 24日19時 VLAT に一時的に
風向・風速南 9m/s
視程5,000m
天気現象弱いしゅう雨
全天の8割程度の積乱雲 雲底高度 610m
TAF UHWW 230755Z 2309/2409 23003MPS 9999 SCT040
BECMG 2310/2312 3100 BR BKN011
TEMPO 2312/2324 0300 FG VV002
FM240100 18003MPS 9999 BKN030CB
TEMPO 2402/2409 18009MPS 5000 -SHRA BKN020CB